Kensington, Canada
Current Conditions -  °F | °C
As of 12:19 PM on Thursday 18 Dec 2014 (Local Time) from CYYG Reporting Station
Drizzle Drizzle  
Wind Chill:   Ceiling: 700
Heat Index:   Visibility: 2mi
Dew Point:   Wind: 18mph
Humidity: 93%   Direction: 160°SSE
Pressure: 29.34"   Gusts: 25mph
Location:  46.43°N, 63.65°W
Report Text: CYYG 181619Z 16016G22KT 2SM -DZ BR SCT003 OVC007 06/05 A2934 RMK SF4SF4 SLP936
Loading
Personal Weather Stations






























Interactive Weather Map New forecast layout! Learn more

10-Day Weather Forecast

Advertisements
Track Severe Weather on mobile